Concerto — JJ3855 — position and weather

sailwx.info

Track history (hours):
 
Tides and Currents Weather Stations Pressure Air Temp Water Temp Dewpoint Dewpoint Depression Visibility Wind Speed Wind Dir Waves Ship Positions

Concerto

Last reported at 2015-Jan-30 11:33 UTC. Time now 2015-Jan-30 17:08 UTC.
Position N 34°38' E 135°11'.

Length 74 m; draft 3 m.

Type: Passenger vessel. MMSI: 431000448.

Date/timePositionNaut miles runAvg speedWind from/ knotsBaromVisibWave heightAir tempDewpointWater temp
2015-Jan-30 11:33N 34°38' E 135°11'2 1.9
2015-Jan-30 10:33N 34°40' E 135°11'1 0.6
2015-Jan-30 09:33N 34°39' E 135°11'1 1.0
2015-Jan-30 08:33N 34°39' E 135°10'2 1.8
2015-Jan-30 07:21N 34°41' E 135°11'4 4.6
2015-Jan-30 06:33N 34°37' E 135°09'4 3.7
2015-Jan-30 05:33N 34°41' E 135°11'0 0.2
2015-Jan-30 04:33N 34°41' E 135°11'3 3.4
2015-Jan-30 03:33N 34°38' E 135°09'4 3.3
2015-Jan-30 02:29N 34°41' E 135°11'0 0.1
2015-Jan-30 01:29N 34°41' E 135°11'0 0.0
2015-Jan-30 00:29N 34°41' E 135°11'0 0.0
2015-Jan-29 23:29N 34°41' E 135°11'0 0.0
2015-Jan-29 22:23N 34°41' E 135°11'0 0.0
2015-Jan-29 21:29N 34°41' E 135°11'0 0.0
2015-Jan-29 20:29N 34°41' E 135°11'0 0.0
2015-Jan-29 19:29N 34°41' E 135°11'0 0.0
2015-Jan-29 18:29N 34°41' E 135°11'0 0.0
2015-Jan-29 17:29N 34°41' E 135°11'0 0.0
2015-Jan-29 16:29N 34°41' E 135°11'0 0.0
2015-Jan-29 15:29N 34°41' E 135°11'0 0.0
2015-Jan-29 14:29N 34°41' E 135°11'0 0.0
2015-Jan-29 13:29N 34°41' E 135°11'0 0.0
2015-Jan-29 12:29N 34°41' E 135°11'3 3.2
2015-Jan-29 11:33N 34°38' E 135°10'2 2.2
2015-Jan-29 10:33N 34°40' E 135°11'1 0.8
2015-Jan-29 09:33N 34°39' E 135°11'1 0.6
2015-Jan-29 08:33N 34°39' E 135°11'2 2.1
2015-Jan-29 07:31N 34°41' E 135°11'3 3.6
2015-Jan-29 06:33N 34°38' E 135°09'3 3.4
2015-Jan-29 05:33N 34°41' E 135°11'0 0.4
2015-Jan-29 04:33N 34°40' E 135°11'3 3.2
2015-Jan-29 03:33N 34°38' E 135°09'3 2.9
2015-Jan-29 02:22N 34°41' E 135°11'0 0.0
2015-Jan-29 01:28N 34°41' E 135°11'0 0.0
2015-Jan-29 00:28N 34°41' E 135°11'0 0.0
2015-Jan-28 23:28N 34°41' E 135°11'0 0.0
2015-Jan-28 22:28N 34°41' E 135°11'0 0.0
2015-Jan-28 21:28N 34°41' E 135°11'0 0.0
2015-Jan-28 20:28N 34°41' E 135°11'0 0.0
2015-Jan-28 19:28N 34°41' E 135°11'0 0.0
2015-Jan-28 18:22N 34°41' E 135°11'0 0.0
2015-Jan-28 17:28N 34°41' E 135°11'0 0.0
2015-Jan-28 16:22N 34°41' E 135°11'0 0.0
2015-Jan-28 15:22N 34°41' E 135°11'0 0.0
2015-Jan-28 14:22N 34°41' E 135°11'0 0.0
2015-Jan-28 13:28N 34°41' E 135°11'0 0.0
2015-Jan-28 12:28N 34°41' E 135°11'3 3.4
2015-Jan-28 11:33N 34°38' E 135°10'2 2.2
2015-Jan-28 10:33N 34°40' E 135°11'0 0.4
2015-Jan-28 09:33N 34°39' E 135°11'1 1.1
2015-Jan-28 08:33N 34°39' E 135°11'2 2.1
2015-Jan-28 07:25N 34°41' E 135°11'3 3.8
2015-Jan-28 06:33N 34°38' E 135°09'3 3.3
2015-Jan-28 05:33N 34°41' E 135°11'1 0.7
2015-Jan-28 04:33N 34°40' E 135°12'3 2.9
2015-Jan-28 03:33N 34°38' E 135°09'3 2.9
2015-Jan-28 02:28N 34°41' E 135°11'0 0.0
2015-Jan-28 01:04N 34°41' E 135°11'0 0.0
2015-Jan-28 00:28N 34°41' E 135°11'0 0.0
2015-Jan-27 23:28N 34°41' E 135°11'0 0.0
2015-Jan-27 22:28N 34°41' E 135°11'0 0.0
2015-Jan-27 21:28N 34°41' E 135°11'0 0.0
2015-Jan-27 20:22N 34°41' E 135°11'0 0.0
2015-Jan-27 19:28N 34°41' E 135°11'0 0.0
2015-Jan-27 18:22N 34°41' E 135°11'0 0.0
2015-Jan-27 17:22N 34°41' E 135°11'0 0.0
2015-Jan-27 16:28N 34°41' E 135°11'0 0.0
2015-Jan-27 15:22N 34°41' E 135°11'0 0.0
2015-Jan-27 14:28N 34°41' E 135°11'0 0.0
2015-Jan-27 13:22N 34°41' E 135°11'0 0.0
2015-Jan-27 12:28N 34°41' E 135°11'3 3.2
2015-Jan-27 11:33N 34°38' E 135°11'2 2.1
2015-Jan-27 10:33N 34°40' E 135°11'0 0.2
2015-Jan-27 09:33N 34°40' E 135°12'1 1.4
2015-Jan-27 08:33N 34°39' E 135°11'2 2.0
2015-Jan-27 07:28N 34°41' E 135°11'3 3.8
2015-Jan-27 06:33N 34°38' E 135°09'3 3.2
2015-Jan-27 05:29N 34°41' E 135°11'0 0.4
2015-Jan-27 04:33N 34°40' E 135°11'3 3.1
2015-Jan-27 03:33N 34°38' E 135°09'3 3.2
2015-Jan-27 02:32N 34°41' E 135°11'0 0.0
2015-Jan-27 01:20N 34°41' E 135°11'0 0.0
2015-Jan-27 00:32N 34°41' E 135°11'0 0.0
2015-Jan-26 23:08N 34°41' E 135°11'0 0.0
2015-Jan-26 22:26N 34°41' E 135°11'0 0.0
2015-Jan-26 21:32N 34°41' E 135°11'0 0.0
2015-Jan-26 20:32N 34°41' E 135°11'0 0.0
2015-Jan-26 19:32N 34°41' E 135°11'0 0.0
2015-Jan-26 18:32N 34°41' E 135°11'0 0.0
2015-Jan-26 17:32N 34°41' E 135°11'0 0.0
2015-Jan-26 16:32N 34°41' E 135°11'0 0.0
2015-Jan-26 15:26N 34°41' E 135°11'0 0.0
2015-Jan-26 14:32N 34°41' E 135°11'0 0.0
2015-Jan-26 13:32N 34°41' E 135°11'0 0.0
2015-Jan-26 12:32N 34°41' E 135°11'3 2.9
2015-Jan-26 11:33N 34°38' E 135°11'2 1.9
2015-Jan-26 10:33N 34°40' E 135°11'1 1.0
2015-Jan-26 09:33N 34°39' E 135°11'0 0.4
2015-Jan-26 08:33N 34°39' E 135°11'2 2.1
2015-Jan-26 07:29N 34°41' E 135°11'3 3.6
2015-Jan-26 06:33N 34°38' E 135°09'3 3.4
2015-Jan-26 05:33N 34°41' E 135°11'1 0.5
2015-Jan-26 04:33N 34°40' E 135°11'3 3.4
2015-Jan-26 03:33N 34°38' E 135°09'4 3.4
2015-Jan-26 02:30N 34°41' E 135°11'0 0.1
2015-Jan-26 01:30N 34°41' E 135°11'0 0.0
2015-Jan-26 00:30N 34°41' E 135°11'0 0.0
2015-Jan-25 23:30N 34°41' E 135°11'0 0.0
2015-Jan-25 22:30N 34°41' E 135°11'0 0.0
2015-Jan-25 21:30N 34°41' E 135°11'0 0.0
2015-Jan-25 20:30N 34°41' E 135°11'0 0.0
2015-Jan-25 19:30N 34°41' E 135°11'0 0.0
2015-Jan-25 18:24N 34°41' E 135°11'0 0.0
2015-Jan-25 17:24N 34°41' E 135°11'0 0.0
2015-Jan-25 16:30N 34°41' E 135°11'0 0.0
2015-Jan-25 15:30N 34°41' E 135°11'0 0.0
2015-Jan-25 14:30N 34°41' E 135°11'0 0.0
2015-Jan-25 13:24N 34°41' E 135°11'0 0.0
2015-Jan-25 12:18N 34°41' E 135°11'3 3.8
2015-Jan-25 11:33N 34°38' E 135°10'2 2.1
2015-Jan-25 10:33N 34°40' E 135°11'1 1.0
2015-Jan-25 09:33N 34°39' E 135°11'1 0.5
2015-Jan-25 08:33N 34°39' E 135°11'2 2.0
2015-Jan-25 07:28N 34°41' E 135°11'3 3.6
2015-Jan-25 06:33N 34°38' E 135°09'3 3.4
2015-Jan-25 05:33N 34°41' E 135°11'1 0.5
2015-Jan-25 04:33N 34°40' E 135°11'3 3.1
2015-Jan-25 03:33N 34°38' E 135°09'1 0.1
2015-Jan-24 11:33N 34°38' E 135°10'2 2.1
2015-Jan-24 10:33N 34°40' E 135°11'1 0.8
2015-Jan-24 09:33N 34°39' E 135°11'1 0.6
2015-Jan-24 08:33N 34°39' E 135°11'2 2.1
2015-Jan-24 07:29N 34°41' E 135°11'3 3.7
2015-Jan-24 06:33N 34°38' E 135°09'3 3.4
2015-Jan-24 05:33N 34°41' E 135°11'0 0.5
2015-Jan-24 04:33N 34°40' E 135°11'3 3.2
2015-Jan-24 03:33N 34°38' E 135°09'3 3.2
2015-Jan-24 02:31N 34°41' E 135°11'3 0.2
2015-Jan-23 11:33N 34°38' E 135°10'2 1.8
2015-Jan-23 10:33N 34°40' E 135°11'1 0.6
2015-Jan-23 09:33N 34°39' E 135°11'1 1.0
2015-Jan-23 08:34N 34°38' E 135°11'2 2.1
2015-Jan-23 07:24N 34°41' E 135°11'3 4.0
2015-Jan-23 06:33N 34°38' E 135°09'3 3.0
2015-Jan-23 05:27N 34°41' E 135°11'1 0.8
2015-Jan-23 04:33N 34°40' E 135°12'3 3.3
2015-Jan-23 03:33N 34°38' E 135°09'4 3.5
2015-Jan-23 02:32N 34°41' E 135°11'0 0.1
2015-Jan-23 01:27N 34°41' E 135°11'0 0.0
2015-Jan-23 00:26N 34°41' E 135°11'0 0.0
2015-Jan-22 23:32N 34°41' E 135°11'0 0.0
2015-Jan-22 22:32N 34°41' E 135°11'0 0.0
2015-Jan-22 21:26N 34°41' E 135°11'0 0.0
2015-Jan-22 20:32N 34°41' E 135°11'0 0.0
2015-Jan-22 19:32N 34°41' E 135°11'0 0.0
2015-Jan-22 18:26N 34°41' E 135°11'0 0.0
2015-Jan-22 17:32N 34°41' E 135°11'0 0.0
2015-Jan-22 16:32N 34°41' E 135°11'0 0.0
2015-Jan-22 15:32N 34°41' E 135°11'0 0.0
2015-Jan-22 14:32N 34°41' E 135°11'0 0.0
2015-Jan-22 13:32N 34°41' E 135°11'0 0.0
2015-Jan-22 12:32N 34°41' E 135°11'3 2.8
2015-Jan-22 11:34N 34°38' E 135°11'2 1.9
2015-Jan-22 10:34N 34°40' E 135°11'1 0.5
2015-Jan-22 09:33N 34°39' E 135°11'1 0.8
2015-Jan-22 08:33N 34°39' E 135°11'2 1.8
2015-Jan-22 07:23N 34°41' E 135°11'3 3.9
2015-Jan-22 06:33N 34°38' E 135°10'3 3.0
2015-Jan-22 05:28N 34°41' E 135°11'0 0.4
2015-Jan-22 04:33N 34°41' E 135°11'3 3.0
2015-Jan-22 03:33N 34°38' E 135°09'3 3.1
2015-Jan-22 02:33N 34°41' E 135°11'3 0.2
2015-Jan-21 11:33N 34°38' E 135°10'2 2.3
2015-Jan-21 10:33N 34°40' E 135°11'1 0.6
2015-Jan-21 09:33N 34°39' E 135°11'1 0.9
2015-Jan-21 08:33N 34°39' E 135°11'2 2.2
2015-Jan-21 07:32N 34°41' E 135°11'3 3.4
2015-Jan-21 06:33N 34°38' E 135°09'3 2.4
2015-Jan-21 05:13N 34°41' E 135°11'0 0.3
2015-Jan-21 04:33N 34°41' E 135°11'3 3.4
2015-Jan-21 03:33N 34°38' E 135°09'3 3.4
2015-Jan-21 02:33N 34°41' E 135°11'0 0.1
2015-Jan-21 01:33N 34°41' E 135°11'0 0.0
2015-Jan-21 00:33N 34°41' E 135°11'0 0.0
2015-Jan-20 23:33N 34°41' E 135°11'0 0.0
2015-Jan-20 22:27N 34°41' E 135°11'0 0.0
2015-Jan-20 21:33N 34°41' E 135°11'0 0.0
2015-Jan-20 20:33N 34°41' E 135°11'0 0.0
2015-Jan-20 19:27N 34°41' E 135°11'0 0.0
2015-Jan-20 18:33N 34°41' E 135°11'0 0.0
2015-Jan-20 17:33N 34°41' E 135°11'0 0.0
2015-Jan-20 16:33N 34°41' E 135°11'0 0.0
2015-Jan-20 15:33N 34°41' E 135°11'0 0.0
2015-Jan-20 14:33N 34°41' E 135°11'0 0.0
2015-Jan-20 13:33N 34°41' E 135°11'0 0.0
2015-Jan-20 12:33N 34°41' E 135°11'  
Track history (hours):
 
Tides and Currents Weather Stations Pressure Air Temp Water Temp Dewpoint Dewpoint Depression Visibility Wind Speed Wind Dir Waves Ship Positions

Concerto

Last reported at 2015-Jan-30 11:33 UTC. Time now 2015-Jan-30 17:08 UTC.
Position N 34°38' E 135°11'.

Length 74 m; draft 3 m.

Type: Passenger vessel. MMSI: 431000448.

Date/timePositionNaut miles runAvg speedWind from/ knotsBaromVisibWave heightAir tempDewpointWater temp
2015-Jan-30 11:33N 34°38' E 135°11'2 1.9
2015-Jan-30 10:33N 34°40' E 135°11'1 0.6
2015-Jan-30 09:33N 34°39' E 135°11'1 1.0
2015-Jan-30 08:33N 34°39' E 135°10'2 1.8
2015-Jan-30 07:21N 34°41' E 135°11'4 4.6
2015-Jan-30 06:33N 34°37' E 135°09'4 3.7
2015-Jan-30 05:33N 34°41' E 135°11'0 0.2
2015-Jan-30 04:33N 34°41' E 135°11'3 3.4
2015-Jan-30 03:33N 34°38' E 135°09'4 3.3
2015-Jan-30 02:29N 34°41' E 135°11'0 0.1
2015-Jan-30 01:29N 34°41' E 135°11'0 0.0
2015-Jan-30 00:29N 34°41' E 135°11'0 0.0
2015-Jan-29 23:29N 34°41' E 135°11'0 0.0
2015-Jan-29 22:23N 34°41' E 135°11'0 0.0
2015-Jan-29 21:29N 34°41' E 135°11'0 0.0
2015-Jan-29 20:29N 34°41' E 135°11'0 0.0
2015-Jan-29 19:29N 34°41' E 135°11'0 0.0
2015-Jan-29 18:29N 34°41' E 135°11'0 0.0
2015-Jan-29 17:29N 34°41' E 135°11'0 0.0
2015-Jan-29 16:29N 34°41' E 135°11'0 0.0
2015-Jan-29 15:29N 34°41' E 135°11'0 0.0
2015-Jan-29 14:29N 34°41' E 135°11'0 0.0
2015-Jan-29 13:29N 34°41' E 135°11'0 0.0
2015-Jan-29 12:29N 34°41' E 135°11'3 3.2
2015-Jan-29 11:33N 34°38' E 135°10'2 2.2
2015-Jan-29 10:33N 34°40' E 135°11'1 0.8
2015-Jan-29 09:33N 34°39' E 135°11'1 0.6
2015-Jan-29 08:33N 34°39' E 135°11'2 2.1
2015-Jan-29 07:31N 34°41' E 135°11'3 3.6
2015-Jan-29 06:33N 34°38' E 135°09'3 3.4
2015-Jan-29 05:33N 34°41' E 135°11'0 0.4
2015-Jan-29 04:33N 34°40' E 135°11'3 3.2
2015-Jan-29 03:33N 34°38' E 135°09'3 2.9
2015-Jan-29 02:22N 34°41' E 135°11'0 0.0
2015-Jan-29 01:28N 34°41' E 135°11'0 0.0
2015-Jan-29 00:28N 34°41' E 135°11'0 0.0
2015-Jan-28 23:28N 34°41' E 135°11'0 0.0
2015-Jan-28 22:28N 34°41' E 135°11'0 0.0
2015-Jan-28 21:28N 34°41' E 135°11'0 0.0
2015-Jan-28 20:28N 34°41' E 135°11'0 0.0
2015-Jan-28 19:28N 34°41' E 135°11'0 0.0
2015-Jan-28 18:22N 34°41' E 135°11'0 0.0
2015-Jan-28 17:28N 34°41' E 135°11'0 0.0
2015-Jan-28 16:22N 34°41' E 135°11'0 0.0
2015-Jan-28 15:22N 34°41' E 135°11'0 0.0
2015-Jan-28 14:22N 34°41' E 135°11'0 0.0
2015-Jan-28 13:28N 34°41' E 135°11'0 0.0
2015-Jan-28 12:28N 34°41' E 135°11'3 3.4
2015-Jan-28 11:33N 34°38' E 135°10'2 2.2
2015-Jan-28 10:33N 34°40' E 135°11'0 0.4
2015-Jan-28 09:33N 34°39' E 135°11'1 1.1
2015-Jan-28 08:33N 34°39' E 135°11'2 2.1
2015-Jan-28 07:25N 34°41' E 135°11'3 3.8
2015-Jan-28 06:33N 34°38' E 135°09'3 3.3
2015-Jan-28 05:33N 34°41' E 135°11'1 0.7
2015-Jan-28 04:33N 34°40' E 135°12'3 2.9
2015-Jan-28 03:33N 34°38' E 135°09'3 2.9
2015-Jan-28 02:28N 34°41' E 135°11'0 0.0
2015-Jan-28 01:04N 34°41' E 135°11'0 0.0
2015-Jan-28 00:28N 34°41' E 135°11'0 0.0
2015-Jan-27 23:28N 34°41' E 135°11'0 0.0
2015-Jan-27 22:28N 34°41' E 135°11'0 0.0
2015-Jan-27 21:28N 34°41' E 135°11'0 0.0
2015-Jan-27 20:22N 34°41' E 135°11'0 0.0
2015-Jan-27 19:28N 34°41' E 135°11'0 0.0
2015-Jan-27 18:22N 34°41' E 135°11'0 0.0
2015-Jan-27 17:22N 34°41' E 135°11'0 0.0
2015-Jan-27 16:28N 34°41' E 135°11'0 0.0
2015-Jan-27 15:22N 34°41' E 135°11'0 0.0
2015-Jan-27 14:28N 34°41' E 135°11'0 0.0
2015-Jan-27 13:22N 34°41' E 135°11'0 0.0
2015-Jan-27 12:28N 34°41' E 135°11'3 3.2
2015-Jan-27 11:33N 34°38' E 135°11'2 2.1
2015-Jan-27 10:33N 34°40' E 135°11'0 0.2
2015-Jan-27 09:33N 34°40' E 135°12'1 1.4
2015-Jan-27 08:33N 34°39' E 135°11'2 2.0
2015-Jan-27 07:28N 34°41' E 135°11'3 3.8
2015-Jan-27 06:33N 34°38' E 135°09'3 3.2
2015-Jan-27 05:29N 34°41' E 135°11'0 0.4
2015-Jan-27 04:33N 34°40' E 135°11'3 3.1
2015-Jan-27 03:33N 34°38' E 135°09'3 3.2
2015-Jan-27 02:32N 34°41' E 135°11'0 0.0
2015-Jan-27 01:20N 34°41' E 135°11'0 0.0
2015-Jan-27 00:32N 34°41' E 135°11'0 0.0
2015-Jan-26 23:08N 34°41' E 135°11'0 0.0
2015-Jan-26 22:26N 34°41' E 135°11'0 0.0
2015-Jan-26 21:32N 34°41' E 135°11'0 0.0
2015-Jan-26 20:32N 34°41' E 135°11'0 0.0
2015-Jan-26 19:32N 34°41' E 135°11'0 0.0
2015-Jan-26 18:32N 34°41' E 135°11'0 0.0
2015-Jan-26 17:32N 34°41' E 135°11'0 0.0
2015-Jan-26 16:32N 34°41' E 135°11'0 0.0
2015-Jan-26 15:26N 34°41' E 135°11'0 0.0
2015-Jan-26 14:32N 34°41' E 135°11'0 0.0
2015-Jan-26 13:32N 34°41' E 135°11'0 0.0
2015-Jan-26 12:32N 34°41' E 135°11'3 2.9
2015-Jan-26 11:33N 34°38' E 135°11'2 1.9
2015-Jan-26 10:33N 34°40' E 135°11'1 1.0
2015-Jan-26 09:33N 34°39' E 135°11'0 0.4
2015-Jan-26 08:33N 34°39' E 135°11'2 2.1
2015-Jan-26 07:29N 34°41' E 135°11'3 3.6
2015-Jan-26 06:33N 34°38' E 135°09'3 3.4
2015-Jan-26 05:33N 34°41' E 135°11'1 0.5
2015-Jan-26 04:33N 34°40' E 135°11'3 3.4
2015-Jan-26 03:33N 34°38' E 135°09'4 3.4
2015-Jan-26 02:30N 34°41' E 135°11'0 0.1
2015-Jan-26 01:30N 34°41' E 135°11'0 0.0
2015-Jan-26 00:30N 34°41' E 135°11'0 0.0
2015-Jan-25 23:30N 34°41' E 135°11'0 0.0
2015-Jan-25 22:30N 34°41' E 135°11'0 0.0
2015-Jan-25 21:30N 34°41' E 135°11'0 0.0
2015-Jan-25 20:30N 34°41' E 135°11'0 0.0
2015-Jan-25 19:30N 34°41' E 135°11'0 0.0
2015-Jan-25 18:24N 34°41' E 135°11'0 0.0
2015-Jan-25 17:24N 34°41' E 135°11'0 0.0
2015-Jan-25 16:30N 34°41' E 135°11'0 0.0
2015-Jan-25 15:30N 34°41' E 135°11'0 0.0
2015-Jan-25 14:30N 34°41' E 135°11'0 0.0
2015-Jan-25 13:24N 34°41' E 135°11'0 0.0
2015-Jan-25 12:18N 34°41' E 135°11'3 3.8
2015-Jan-25 11:33N 34°38' E 135°10'2 2.1
2015-Jan-25 10:33N 34°40' E 135°11'1 1.0
2015-Jan-25 09:33N 34°39' E 135°11'1 0.5
2015-Jan-25 08:33N 34°39' E 135°11'2 2.0
2015-Jan-25 07:28N 34°41' E 135°11'3 3.6
2015-Jan-25 06:33N 34°38' E 135°09'3 3.4
2015-Jan-25 05:33N 34°41' E 135°11'1 0.5
2015-Jan-25 04:33N 34°40' E 135°11'3 3.1
2015-Jan-25 03:33N 34°38' E 135°09'1 0.1
2015-Jan-24 11:33N 34°38' E 135°10'2 2.1
2015-Jan-24 10:33N 34°40' E 135°11'1 0.8
2015-Jan-24 09:33N 34°39' E 135°11'1 0.6
2015-Jan-24 08:33N 34°39' E 135°11'2 2.1
2015-Jan-24 07:29N 34°41' E 135°11'3 3.7
2015-Jan-24 06:33N 34°38' E 135°09'3 3.4
2015-Jan-24 05:33N 34°41' E 135°11'0 0.5
2015-Jan-24 04:33N 34°40' E 135°11'3 3.2
2015-Jan-24 03:33N 34°38' E 135°09'3 3.2
2015-Jan-24 02:31N 34°41' E 135°11'3 0.2
2015-Jan-23 11:33N 34°38' E 135°10'2 1.8
2015-Jan-23 10:33N 34°40' E 135°11'1 0.6
2015-Jan-23 09:33N 34°39' E 135°11'1 1.0
2015-Jan-23 08:34N 34°38' E 135°11'2 2.1
2015-Jan-23 07:24N 34°41' E 135°11'3 4.0
2015-Jan-23 06:33N 34°38' E 135°09'3 3.0
2015-Jan-23 05:27N 34°41' E 135°11'1 0.8
2015-Jan-23 04:33N 34°40' E 135°12'3 3.3
2015-Jan-23 03:33N 34°38' E 135°09'4 3.5
2015-Jan-23 02:32N 34°41' E 135°11'0 0.1
2015-Jan-23 01:27N 34°41' E 135°11'0 0.0
2015-Jan-23 00:26N 34°41' E 135°11'0 0.0
2015-Jan-22 23:32N 34°41' E 135°11'0 0.0
2015-Jan-22 22:32N 34°41' E 135°11'0 0.0
2015-Jan-22 21:26N 34°41' E 135°11'0 0.0
2015-Jan-22 20:32N 34°41' E 135°11'0 0.0
2015-Jan-22 19:32N 34°41' E 135°11'0 0.0
2015-Jan-22 18:26N 34°41' E 135°11'0 0.0
2015-Jan-22 17:32N 34°41' E 135°11'0 0.0
2015-Jan-22 16:32N 34°41' E 135°11'0 0.0
2015-Jan-22 15:32N 34°41' E 135°11'0 0.0
2015-Jan-22 14:32N 34°41' E 135°11'0 0.0
2015-Jan-22 13:32N 34°41' E 135°11'0 0.0
2015-Jan-22 12:32N 34°41' E 135°11'3 2.8
2015-Jan-22 11:34N 34°38' E 135°11'2 1.9
2015-Jan-22 10:34N 34°40' E 135°11'1 0.5
2015-Jan-22 09:33N 34°39' E 135°11'1 0.8
2015-Jan-22 08:33N 34°39' E 135°11'2 1.8
2015-Jan-22 07:23N 34°41' E 135°11'3 3.9
2015-Jan-22 06:33N 34°38' E 135°10'3 3.0
2015-Jan-22 05:28N 34°41' E 135°11'0 0.4
2015-Jan-22 04:33N 34°41' E 135°11'3 3.0
2015-Jan-22 03:33N 34°38' E 135°09'3 3.1
2015-Jan-22 02:33N 34°41' E 135°11'3 0.2
2015-Jan-21 11:33N 34°38' E 135°10'2 2.3
2015-Jan-21 10:33N 34°40' E 135°11'1 0.6
2015-Jan-21 09:33N 34°39' E 135°11'1 0.9
2015-Jan-21 08:33N 34°39' E 135°11'2 2.2
2015-Jan-21 07:32N 34°41' E 135°11'3 3.4
2015-Jan-21 06:33N 34°38' E 135°09'3 2.4
2015-Jan-21 05:13N 34°41' E 135°11'0 0.3
2015-Jan-21 04:33N 34°41' E 135°11'3 3.4
2015-Jan-21 03:33N 34°38' E 135°09'3 3.4
2015-Jan-21 02:33N 34°41' E 135°11'0 0.1
2015-Jan-21 01:33N 34°41' E 135°11'0 0.0
2015-Jan-21 00:33N 34°41' E 135°11'0 0.0
2015-Jan-20 23:33N 34°41' E 135°11'0 0.0
2015-Jan-20 22:27N 34°41' E 135°11'0 0.0
2015-Jan-20 21:33N 34°41' E 135°11'0 0.0
2015-Jan-20 20:33N 34°41' E 135°11'0 0.0
2015-Jan-20 19:27N 34°41' E 135°11'0 0.0
2015-Jan-20 18:33N 34°41' E 135°11'0 0.0
2015-Jan-20 17:33N 34°41' E 135°11'0 0.0
2015-Jan-20 16:33N 34°41' E 135°11'0 0.0
2015-Jan-20 15:33N 34°41' E 135°11'0 0.0
2015-Jan-20 14:33N 34°41' E 135°11'0 0.0
2015-Jan-20 13:33N 34°41' E 135°11'0 0.0
2015-Jan-20 12:33N 34°41' E 135°11'  

Dump ship's entire track history